createdAt,value
2023-03-02T00:04:02.620Z,101204.78
2023-03-02T00:09:02.657Z,101205.03
2023-03-02T00:13:59.369Z,101203.16
2023-03-02T00:18:55.769Z,101198.72
2023-03-02T00:23:53.030Z,101193.28
2023-03-02T00:28:49.579Z,101197.75
2023-03-02T00:33:45.943Z,101193.31
2023-03-02T00:38:42.501Z,101194.00
2023-03-02T00:43:39.154Z,101192.13
2023-03-02T00:48:35.516Z,101189.66
2023-03-02T00:53:33.202Z,101187.03
2023-03-02T00:58:30.764Z,101199.25
2023-03-02T01:03:27.165Z,101195.91
2023-03-02T01:08:25.095Z,101187.47
2023-03-02T01:13:21.595Z,101187.75
2023-03-02T01:18:18.016Z,101194.72
2023-03-02T01:23:14.413Z,101180.06
2023-03-02T01:28:10.738Z,101186.16
2023-03-02T01:33:07.099Z,101174.53
2023-03-02T01:38:03.469Z,101181.59
2023-03-02T01:43:05.069Z,101172.88
2023-03-02T01:48:01.613Z,101177.28
2023-03-02T01:52:58.125Z,101164.16
2023-03-02T01:57:56.472Z,101166.41
2023-03-02T02:03:08.589Z,101172.97
2023-03-02T02:08:05.907Z,101158.16
2023-03-02T02:13:02.924Z,101162.44
2023-03-02T02:17:59.307Z,101157.66
2023-03-02T02:23:27.949Z,101152.41
2023-03-02T02:28:57.653Z,101153.50
2023-03-02T02:34:01.055Z,101148.53
2023-03-02T02:38:57.636Z,101140.03
2023-03-02T02:43:54.963Z,101144.56
2023-03-02T02:48:52.394Z,101141.28
2023-03-02T02:53:59.815Z,101139.94
2023-03-02T02:59:04.175Z,101140.75
2023-03-02T03:04:05.882Z,101140.38
2023-03-02T03:09:02.585Z,101137.13
2023-03-02T03:14:11.140Z,101128.66
2023-03-02T03:19:29.959Z,101140.88
2023-03-02T03:24:27.065Z,101127.16
2023-03-02T03:29:25.944Z,101128.00
2023-03-02T03:34:23.447Z,101125.47
2023-03-02T03:39:20.690Z,101123.78
2023-03-02T03:44:17.070Z,101113.25
2023-03-02T03:49:13.644Z,101124.56
2023-03-02T03:54:10.720Z,101119.44
2023-03-02T03:59:14.176Z,101134.28
2023-03-02T04:04:14.159Z,101128.94
2023-03-02T04:09:12.174Z,101134.00
2023-03-02T04:14:09.641Z,101127.81
2023-03-02T04:19:09.662Z,101124.53
2023-03-02T04:24:07.355Z,101133.97
2023-03-02T04:29:04.539Z,101133.13
2023-03-02T04:34:04.020Z,101117.72
2023-03-02T04:39:00.553Z,101116.03
2023-03-02T04:43:57.089Z,101125.53
2023-03-02T04:48:53.856Z,101114.31
2023-03-02T04:53:57.906Z,101111.81
2023-03-02T04:58:55.297Z,101113.50
2023-03-02T05:03:51.693Z,101125.72
2023-03-02T05:08:48.267Z,101117.78
2023-03-02T05:13:44.675Z,101126.22
2023-03-02T05:18:41.037Z,101112.63
2023-03-02T05:23:37.430Z,101117.13
2023-03-02T05:28:34.390Z,101118.88
2023-03-02T05:33:30.948Z,101114.66
2023-03-02T05:38:27.618Z,101112.81
2023-03-02T05:43:24.202Z,101113.59
2023-03-02T05:48:20.563Z,101117.78
2023-03-02T05:53:17.119Z,101122.22
2023-03-02T05:58:16.394Z,101118.75
2023-03-02T06:03:12.792Z,101129.13
2023-03-02T06:08:09.299Z,101132.72
2023-03-02T06:13:05.630Z,101132.59
2023-03-02T06:18:02.063Z,101141.31
2023-03-02T06:22:58.545Z,101142.38
2023-03-02T06:27:54.925Z,101132.78
2023-03-02T06:32:51.851Z,101139.59
2023-03-02T06:37:48.409Z,101142.69
2023-03-02T06:42:44.777Z,101143.28
2023-03-02T06:47:41.589Z,101143.72
2023-03-02T06:52:37.941Z,101155.66
2023-03-02T06:57:34.396Z,101159.19
2023-03-02T07:02:30.902Z,101163.44
2023-03-02T07:07:27.558Z,101152.75
2023-03-02T07:12:23.894Z,101159.81
2023-03-02T07:17:20.257Z,101157.69
2023-03-02T07:22:17.007Z,101162.09
2023-03-02T07:27:13.367Z,101162.13
2023-03-02T07:32:12.389Z,101165.66
2023-03-02T07:37:09.124Z,101164.50
2023-03-02T07:42:08.814Z,101155.09
2023-03-02T07:47:05.386Z,101153.19
2023-03-02T07:52:02.911Z,101160.13
2023-03-02T07:56:59.400Z,101152.06
2023-03-02T08:01:56.651Z,101148.13
2023-03-02T08:06:53.048Z,101153.44
2023-03-02T08:11:49.435Z,101149.41
2023-03-02T08:16:45.824Z,101153.84
2023-03-02T08:21:42.219Z,101149.72
2023-03-02T08:26:39.031Z,101153.72
2023-03-02T08:31:35.809Z,101155.44
2023-03-02T08:36:32.702Z,101146.75
2023-03-02T08:41:29.474Z,101142.50
2023-03-02T08:46:25.816Z,101126.19
2023-03-02T08:51:24.910Z,101145.56
2023-03-02T08:56:25.114Z,101136.41
2023-03-02T09:01:25.191Z,101124.22
2023-03-02T09:06:21.632Z,101122.19
2023-03-02T09:11:18.464Z,101112.63
2023-03-02T09:16:15.352Z,101120.16
2023-03-02T09:21:11.871Z,101120.53
2023-03-02T09:26:09.121Z,101129.06
2023-03-02T09:31:07.496Z,101131.69
2023-03-02T09:36:20.503Z,101127.66
2023-03-02T09:41:19.911Z,101125.63
2023-03-02T09:46:44.372Z,101122.59
2023-03-02T09:51:56.771Z,101127.88
2023-03-02T09:56:55.557Z,101131.91
2023-03-02T10:02:03.747Z,101131.97
2023-03-02T10:07:13.699Z,101126.16
2023-03-02T10:12:31.609Z,101128.50
2023-03-02T10:17:45.808Z,101132.19
2023-03-02T10:22:48.341Z,101132.38
2023-03-02T10:27:51.489Z,101127.31
2023-03-02T10:32:50.239Z,101124.13
2023-03-02T10:37:47.906Z,101123.22
2023-03-02T10:42:44.567Z,101120.03
2023-03-02T10:47:40.894Z,101120.44
2023-03-02T10:52:37.235Z,101119.91
2023-03-02T10:57:39.174Z,101119.75
2023-03-02T11:02:37.379Z,101115.16
2023-03-02T11:07:33.745Z,101106.06
2023-03-02T11:12:31.633Z,101106.34
2023-03-02T11:17:34.654Z,101099.41
2023-03-02T11:22:52.351Z,101107.13
2023-03-02T11:27:57.040Z,101092.09
2023-03-02T11:33:17.252Z,101095.97
2023-03-02T11:38:21.360Z,101087.94
2023-03-02T11:43:17.749Z,101088.38
2023-03-02T11:48:34.931Z,101072.47
2023-03-02T11:53:41.410Z,101078.50
2023-03-02T11:58:39.196Z,101081.59
2023-03-02T12:03:38.785Z,101069.13
2023-03-02T12:08:39.917Z,101068.25
2023-03-02T12:13:39.110Z,101052.53
2023-03-02T12:18:44.674Z,101046.09
2023-03-02T12:23:55.201Z,101030.09
2023-03-02T12:29:23.261Z,101024.75
2023-03-02T12:34:38.976Z,101018.09
2023-03-02T12:39:48.173Z,101019.34
2023-03-02T12:45:01.106Z,101004.56
2023-03-02T12:50:04.325Z,100999.56
2023-03-02T12:55:09.398Z,101002.78
2023-03-02T13:00:14.952Z,100997.78
2023-03-02T13:05:20.042Z,100991.16
2023-03-02T13:10:22.509Z,100983.19
2023-03-02T13:15:19.663Z,100962.19
2023-03-02T13:20:16.514Z,100971.09
2023-03-02T13:25:23.348Z,100965.44
2023-03-02T13:30:28.598Z,100963.03
2023-03-02T13:35:26.986Z,100974.66
2023-03-02T13:40:23.269Z,100962.59
2023-03-02T13:45:24.409Z,100960.13
2023-03-02T13:50:29.561Z,100949.53
2023-03-02T13:55:26.357Z,100939.28
2023-03-02T14:00:29.709Z,100941.97
2023-03-02T14:05:32.932Z,100925.16
2023-03-02T14:10:29.659Z,100915.63
2023-03-02T14:15:26.142Z,100925.38
2023-03-02T14:20:22.478Z,100919.22
2023-03-02T14:25:19.467Z,100914.63
2023-03-02T14:30:20.622Z,100921.03
2023-03-02T14:35:17.086Z,100920.53
2023-03-02T14:40:28.110Z,100901.63
2023-03-02T14:45:24.572Z,100905.03
2023-03-02T14:50:20.841Z,100907.31
2023-03-02T14:55:25.800Z,100896.59
2023-03-02T15:00:22.614Z,100898.72
2023-03-02T15:05:19.401Z,100893.97
2023-03-02T15:10:19.596Z,100902.75
2023-03-02T15:15:16.162Z,100896.47
2023-03-02T15:20:15.238Z,100908.72
2023-03-02T15:25:11.573Z,100902.09
2023-03-02T15:30:08.553Z,100901.03
2023-03-02T15:35:05.361Z,100902.72
2023-03-02T15:40:01.689Z,100900.22
2023-03-02T15:44:57.986Z,100913.19
2023-03-02T15:49:54.286Z,100914.06
2023-03-02T15:54:50.669Z,100908.50
2023-03-02T15:59:47.315Z,100912.09
2023-03-02T16:04:43.824Z,100911.31
2023-03-02T16:09:40.236Z,100910.44
2023-03-02T16:14:36.554Z,100926.44
2023-03-02T16:19:33.420Z,100917.69
2023-03-02T16:24:29.809Z,100914.59
2023-03-02T16:29:26.259Z,100936.69
2023-03-02T16:34:22.794Z,100940.66
2023-03-02T16:39:19.146Z,100943.03
2023-03-02T16:44:16.005Z,100947.81
2023-03-02T16:49:13.794Z,100948.16
2023-03-02T16:54:11.692Z,100958.06
2023-03-02T16:59:08.101Z,100955.94
2023-03-02T17:04:06.032Z,100963.53
2023-03-02T17:09:03.125Z,100977.16
2023-03-02T17:13:59.465Z,100973.72
2023-03-02T17:18:55.750Z,100995.19
2023-03-02T17:23:52.094Z,100998.94
2023-03-02T17:28:48.463Z,101003.56
2023-03-02T17:33:45.027Z,101002.66
2023-03-02T17:38:41.402Z,101002.53
2023-03-02T17:43:42.698Z,101019.22
2023-03-02T17:48:39.039Z,101015.63
2023-03-02T17:53:35.356Z,101021.59
2023-03-02T17:58:44.242Z,101026.38
2023-03-02T18:03:41.275Z,101024.72
2023-03-02T18:08:37.767Z,101018.53
2023-03-02T18:13:34.140Z,101025.09
2023-03-02T18:18:30.970Z,101030.31
2023-03-02T18:23:27.397Z,101036.38
2023-03-02T18:28:23.884Z,101034.63
2023-03-02T18:33:20.269Z,101041.47
2023-03-02T18:38:16.619Z,101051.53
2023-03-02T18:43:12.999Z,101046.38
2023-03-02T18:48:09.305Z,101049.84
2023-03-02T18:53:05.611Z,101046.72
2023-03-02T18:58:01.919Z,101052.09
2023-03-02T19:02:58.293Z,101049.44
2023-03-02T19:07:54.832Z,101066.28
2023-03-02T19:12:51.202Z,101060.19
2023-03-02T19:17:48.992Z,101066.25
2023-03-02T19:22:45.329Z,101062.09
2023-03-02T19:27:41.663Z,101076.19
2023-03-02T19:32:38.008Z,101078.59
2023-03-02T19:37:34.365Z,101076.03
2023-03-02T19:42:34.591Z,101086.59
2023-03-02T19:47:32.011Z,101087.34
2023-03-02T19:52:28.376Z,101084.84
2023-03-02T19:57:27.444Z,101082.25
2023-03-02T20:02:24.587Z,101085.03
2023-03-02T20:07:20.914Z,101095.59
2023-03-02T20:12:17.213Z,101098.00
2023-03-02T20:17:14.425Z,101099.03
2023-03-02T20:22:11.107Z,101099.09
2023-03-02T20:27:07.730Z,101109.50
2023-03-02T20:32:06.058Z,101110.47
2023-03-02T20:37:03.743Z,101107.72
2023-03-02T20:42:00.392Z,101112.00
2023-03-02T20:47:01.096Z,101105.03
2023-03-02T20:51:59.486Z,101106.75
2023-03-02T20:56:56.484Z,101111.22
2023-03-02T21:01:53.100Z,101116.47
2023-03-02T21:06:49.953Z,101105.00
2023-03-02T21:11:46.916Z,101111.00
2023-03-02T21:16:44.408Z,101125.63
2023-03-02T21:21:42.386Z,101131.09
2023-03-02T21:26:39.358Z,101116.34
2023-03-02T21:31:35.752Z,101117.31
2023-03-02T21:36:32.452Z,101126.13
2023-03-02T21:41:28.855Z,101127.03
2023-03-02T21:46:25.393Z,101130.63
2023-03-02T21:51:22.154Z,101131.31
2023-03-02T21:56:24.381Z,101121.88
2023-03-02T22:01:22.152Z,101134.78
2023-03-02T22:06:22.222Z,101126.69
2023-03-02T22:11:22.728Z,101132.09
2023-03-02T22:16:27.160Z,101137.50
2023-03-02T22:21:26.454Z,101133.06
2023-03-02T22:26:22.811Z,101134.69
2023-03-02T22:31:21.995Z,101140.03
2023-03-02T22:36:22.070Z,101136.97
2023-03-02T22:41:19.692Z,101135.25
2023-03-02T22:46:19.933Z,101142.00
2023-03-02T22:51:22.370Z,101139.34
2023-03-02T22:56:33.872Z,101128.88
2023-03-02T23:01:39.690Z,101141.00
2023-03-02T23:06:45.172Z,101139.53
2023-03-02T23:11:41.994Z,101144.63
2023-03-02T23:16:38.578Z,101145.34
2023-03-02T23:21:39.974Z,101138.16
2023-03-02T23:26:36.881Z,101124.88
2023-03-02T23:31:33.764Z,101128.41
2023-03-02T23:36:31.871Z,101120.31
2023-03-02T23:41:28.264Z,101114.31
2023-03-02T23:46:25.635Z,101124.53
2023-03-02T23:51:26.397Z,101126.09
2023-03-02T23:56:23.053Z,101122.41
